Time;durP1;ratioP1;P1;durP2;ratioP2;P2;SDS_P1;SDS_P2;PMS_P1;PMS_P2;Temp;Humidity;BMP_temperature;BMP_pressure;BME280_temperature;BME280_humidity;BME280_pressure;Samples;Min_cycle;Max_cycle;Signal;HPM_P1;HPM_P2
2022/12/06 00:00:26;;;;;;;1999.90;999.90;;;2.40;99.90;;;;;;5095582;28;20479;-74
2022/12/06 00:02:52;;;;;;;1999.90;999.90;;;2.40;99.90;;;;;;5089457;28;20067;-74
2022/12/06 00:05:18;;;;;;;1999.90;999.90;;;2.40;99.90;;;;;;5074778;28;20024;-74
2022/12/06 00:07:43;;;;;;;1999.90;999.90;;;2.40;99.90;;;;;;5074872;28;20507;-76
2022/12/06 00:10:09;;;;;;;1999.90;999.90;;;2.30;99.90;;;;;;5073737;28;20142;-74
2022/12/06 00:12:35;;;;;;;1999.90;999.90;;;2.30;99.90;;;;;;5074823;28;20028;-76
2022/12/06 00:15:00;;;;;;;1999.90;999.90;;;2.30;99.90;;;;;;5074756;28;20032;-73
2022/12/06 00:17:26;;;;;;;1999.90;999.90;;;2.30;99.90;;;;;;5074572;28;20025;-74
2022/12/06 00:19:52;;;;;;;1999.90;999.90;;;2.30;99.90;;;;;;5069497;28;20039;-73
2022/12/06 00:22:17;;;;;;;1999.90;999.90;;;2.30;99.90;;;;;;5074116;28;20032;-74
2022/12/06 00:24:43;;;;;;;1999.90;999.90;;;2.30;99.90;;;;;;5069862;28;20377;-74
2022/12/06 00:27:08;;;;;;;1999.90;999.90;;;2.30;99.90;;;;;;5054449;28;20032;-76
2022/12/06 00:29:34;;;;;;;1999.90;999.90;;;2.30;99.90;;;;;;5054223;28;20560;-74
2022/12/06 00:32:00;;;;;;;1999.90;999.90;;;2.30;99.90;;;;;;5053451;28;20024;-74
2022/12/06 00:34:26;;;;;;;1999.90;999.90;;;2.30;99.90;;;;;;5054335;28;20108;-76
2022/12/06 00:36:52;;;;;;;1999.90;999.90;;;2.30;99.90;;;;;;5054300;28;20025;-76
2022/12/06 00:39:18;;;;;;;1999.90;999.90;;;2.30;99.90;;;;;;5054417;28;20078;-76
2022/12/06 00:41:43;;;;;;;1999.90;999.90;;;2.30;99.90;;;;;;5053743;28;20032;-74
2022/12/06 00:44:10;;;;;;;1999.90;999.90;;;2.30;99.90;;;;;;5058076;28;20104;-76
2022/12/06 00:46:36;;;;;;;1999.90;999.90;;;2.20;99.90;;;;;;5094560;28;20031;-74
2022/12/06 00:49:04;;;;;;;1999.90;999.90;;;2.30;99.90;;;;;;5094454;28;20479;-76
2022/12/06 00:51:32;;;;;;;1999.90;999.90;;;2.30;99.90;;;;;;5094526;28;20105;-76
2022/12/06 00:53:58;;;;;;;1999.90;999.90;;;2.30;99.90;;;;;;5094249;28;20043;-76
2022/12/06 00:56:24;;;;;;;1999.90;999.90;;;2.30;99.90;;;;;;5093944;28;20031;-73
2022/12/06 00:58:50;;;;;;;1999.90;999.90;;;2.30;99.90;;;;;;5094155;28;20028;-75
2022/12/06 01:01:22;;;;;;;1999.90;999.90;;;2.20;99.90;;;;;;5093956;28;20039;-74
2022/12/06 01:03:56;;;;;;;1999.90;999.90;;;2.30;99.90;;;;;;5080294;28;20044;-76
2022/12/06 01:06:27;;;;;;;1999.90;999.90;;;2.30;99.90;;;;;;5073989;28;20020;-75
2022/12/06 01:08:54;;;;;;;1999.90;999.90;;;2.30;99.90;;;;;;5072727;28;20537;-73
2022/12/06 01:11:21;;;;;;;1999.90;999.90;;;2.30;99.90;;;;;;5072524;28;20029;-75
2022/12/06 01:13:46;;;;;;;1999.90;999.90;;;2.20;99.90;;;;;;5077181;28;20028;-74
2022/12/06 01:16:15;;;;;;;1999.90;999.90;;;2.20;99.90;;;;;;5072344;28;20502;-76
2022/12/06 01:18:42;;;;;;;1999.90;999.90;;;2.20;99.90;;;;;;5073696;28;20441;-74
2022/12/06 01:21:13;;;;;;;1999.90;999.90;;;2.10;99.90;;;;;;5068452;28;20066;-73
2022/12/06 01:23:39;;;;;;;1999.90;999.90;;;2.10;99.90;;;;;;5073062;28;20438;-74
2022/12/06 01:26:06;;;;;;;1999.90;999.90;;;2.10;99.90;;;;;;5056945;28;20431;-73
2022/12/06 01:28:32;;;;;;;1999.90;999.90;;;2.10;99.90;;;;;;5053620;28;20032;-73
2022/12/06 01:30:57;;;;;;;1999.90;999.90;;;2.10;99.90;;;;;;5053329;28;20025;-74
2022/12/06 01:33:23;;;;;;;1999.90;999.90;;;2.20;99.90;;;;;;5053565;28;20472;-74
2022/12/06 01:35:49;;;;;;;1999.90;999.90;;;2.20;99.90;;;;;;5053061;28;20032;-73
2022/12/06 01:38:14;;;;;;;1999.90;999.90;;;2.20;99.90;;;;;;5053351;28;20079;-76
2022/12/06 01:40:43;;;;;;;1999.90;999.90;;;2.30;99.90;;;;;;5052780;28;20029;-76
2022/12/06 01:43:29;;;;;;;1999.90;999.90;;;2.30;99.90;;;;;;5052631;28;20029;-73
2022/12/06 01:45:55;;;;;;;1999.90;999.90;;;2.40;99.90;;;;;;5086090;28;20501;-73
2022/12/06 01:48:25;;;;;;;1999.90;999.90;;;2.30;99.90;;;;;;5093386;28;20022;-75
2022/12/06 01:50:53;;;;;;;1999.90;999.90;;;2.40;99.90;;;;;;5093000;28;20012;-76
2022/12/06 01:53:19;;;;;;;1999.90;999.90;;;2.40;99.90;;;;;;5093082;28;20501;-73
2022/12/06 01:55:45;;;;;;;1999.90;999.90;;;2.40;99.90;;;;;;5092737;28;20028;-74
2022/12/06 01:58:17;;;;;;;1999.90;999.90;;;2.40;99.90;;;;;;5093152;28;20027;-74
2022/12/06 02:00:43;;;;;;;1999.90;999.90;;;2.50;99.90;;;;;;5093286;28;20031;-76
2022/12/06 02:03:15;;;;;;;1999.90;999.90;;;2.50;99.90;;;;;;5084600;28;20539;-76
2022/12/06 02:05:41;;;;;;;1999.90;999.90;;;2.50;99.90;;;;;;5072838;28;20013;-74
2022/12/06 02:08:08;;;;;;;1999.90;999.90;;;2.50;99.90;;;;;;5072801;28;20036;-75
2022/12/06 02:10:35;;;;;;;1999.90;999.90;;;2.40;99.90;;;;;;5071762;28;20021;-73
2022/12/06 02:13:02;;;;;;;1999.90;999.90;;;2.40;99.90;;;;;;5072215;28;20055;-76
2022/12/06 02:15:47;;;;;;;1999.90;999.90;;;2.40;99.90;;;;;;5072591;28;20032;-76
2022/12/06 02:18:21;;;;;;;1999.90;999.90;;;2.50;99.90;;;;;;5072528;28;20119;-75
2022/12/06 02:20:58;;;;;;;1999.90;999.90;;;2.40;99.90;;;;;;5067603;28;20064;-73
2022/12/06 02:23:26;;;;;;;1999.90;999.90;;;2.40;99.90;;;;;;5072098;28;20107;-74
2022/12/06 02:26:10;;;;;;;1999.90;999.90;;;2.40;99.90;;;;;;5057720;28;20021;-73
2022/12/06 02:28:57;;;;;;;1999.90;999.90;;;2.40;99.90;;;;;;5052510;28;20029;-73
2022/12/06 02:31:46;;;;;;;1999.90;999.90;;;2.40;99.90;;;;;;5052308;28;20369;-73
2022/12/06 02:34:19;;;;;;;1999.90;999.90;;;2.40;99.90;;;;;;5052388;28;20461;-73
2022/12/06 02:37:09;;;;;;;1999.90;999.90;;;2.40;99.90;;;;;;5052255;28;20029;-73
2022/12/06 02:39:48;;;;;;;1999.90;999.90;;;2.40;99.90;;;;;;5051837;28;20039;-75
2022/12/06 02:42:16;;;;;;;1999.90;999.90;;;2.40;99.90;;;;;;5051802;28;20061;-73
2022/12/06 02:45:00;;;;;;;1999.90;999.90;;;2.40;99.90;;;;;;5065219;28;20031;-73
2022/12/06 02:47:29;;;;;;;;;;;2.40;99.90;;;;;;5093072;28;20095;-73
2022/12/06 02:49:56;;;;;;;1999.90;999.90;;;2.30;99.90;;;;;;5092222;28;19908;-76
2022/12/06 02:52:26;;;;;;;1999.90;999.90;;;2.30;99.90;;;;;;5092984;28;20052;-73
2022/12/06 02:54:55;;;;;;;1999.90;999.90;;;2.40;99.90;;;;;;5092061;28;20034;-76
2022/12/06 02:57:46;;;;;;;1999.90;999.90;;;2.40;99.90;;;;;;5095781;28;20032;-76
2022/12/06 03:00:33;;;;;;;1999.90;999.90;;;2.40;99.90;;;;;;5095891;28;20111;-73
2022/12/06 03:03:32;;;;;;;1999.90;999.90;;;2.40;99.90;;;;;;5089712;28;20028;-73
2022/12/06 03:06:01;;;;;;;1999.90;999.90;;;2.40;99.90;;;;;;5076055;28;20028;-73
2022/12/06 03:08:41;;;;;;;1999.90;999.90;;;2.40;99.90;;;;;;5076247;28;20073;-73
2022/12/06 03:11:07;;;;;;;1999.90;999.90;;;2.40;99.90;;;;;;5074679;28;20029;-76
2022/12/06 03:13:58;;;;;;;1999.90;999.90;;;2.40;99.90;;;;;;5075955;28;20028;-73
2022/12/06 03:16:26;;;;;;;1999.90;999.90;;;2.40;99.90;;;;;;5076206;28;20025;-74
2022/12/06 03:19:14;;;;;;;1999.90;999.90;;;2.40;99.90;;;;;;5076021;28;20040;-75
2022/12/06 03:21:55;;;;;;;1999.90;999.90;;;2.40;99.90;;;;;;5074271;28;20116;-73
2022/12/06 03:24:23;;;;;;;1999.90;999.90;;;2.40;99.90;;;;;;5071892;28;20062;-75
2022/12/06 03:26:51;;;;;;;1999.90;999.90;;;2.30;99.90;;;;;;5075690;28;20021;-76
2022/12/06 03:29:22;;;;;;;1999.90;999.90;;;2.30;99.90;;;;;;5075451;28;20373;-75
2022/12/06 03:31:48;;;;;;;1999.90;999.90;;;2.30;99.90;;;;;;5075516;28;20376;-73
2022/12/06 03:34:14;;;;;;;1999.90;999.90;;;2.20;99.90;;;;;;5075610;28;20035;-76
2022/12/06 03:36:42;;;;;;;1999.90;999.90;;;2.20;99.90;;;;;;5075483;28;20028;-76
2022/12/06 03:39:09;;;;;;;1999.90;999.90;;;2.10;99.90;;;;;;5075539;28;20509;-76
2022/12/06 03:41:46;;;;;;;1999.90;999.90;;;2.10;99.90;;;;;;5074785;28;20033;-73
2022/12/06 03:44:12;;;;;;;1999.90;999.90;;;2.10;99.90;;;;;;5077653;28;20024;-76
2022/12/06 03:46:41;;;;;;;1999.90;999.90;;;1.90;99.90;;;;;;5095688;28;20029;-73
2022/12/06 03:49:13;;;;;;;1999.90;999.90;;;1.90;99.90;;;;;;5095460;28;20012;-73
2022/12/06 03:51:41;;;;;;;1999.90;999.90;;;1.90;99.90;;;;;;5094123;28;20031;-73
2022/12/06 03:54:07;;;;;;;1999.90;999.90;;;1.80;99.90;;;;;;5095487;28;20142;-73
2022/12/06 03:56:35;;;;;;;1999.90;999.90;;;1.80;99.90;;;;;;5095259;28;20024;-73
2022/12/06 03:59:06;;;;;;;1999.90;999.90;;;1.80;99.90;;;;;;5101974;28;20043;-73
2022/12/06 04:01:32;;;;;;;1999.90;999.90;;;1.80;99.90;;;;;;5091960;28;20024;-73
2022/12/06 04:03:58;;;;;;;1999.90;999.90;;;1.70;99.90;;;;;;5074336;28;20063;-73
2022/12/06 04:06:24;;;;;;;1999.90;999.90;;;1.80;99.90;;;;;;5074811;28;20099;-73
2022/12/06 04:08:49;;;;;;;1999.90;999.90;;;1.80;99.90;;;;;;5073768;28;20120;-72
2022/12/06 04:11:15;;;;;;;1999.90;999.90;;;1.80;99.90;;;;;;5074792;28;20096;-76
2022/12/06 04:13:41;;;;;;;1999.90;999.90;;;1.80;99.90;;;;;;5074109;28;20025;-73
2022/12/06 04:18:09;;;;;;;1999.90;999.90;;;1.90;99.90;;;;;;5073930;28;20024;-75
2022/12/06 04:18:54;;;;;;;1999.90;999.90;;;1.90;99.90;;;;;;5074571;28;20021;-76
2022/12/06 04:23:59;;;;;;;1999.90;999.90;;;1.90;99.90;;;;;;5071781;28;20064;-73
2022/12/06 04:26:25;;;;;;;1999.90;999.90;;;1.90;99.90;;;;;;5062471;28;20029;-73
2022/12/06 04:39:51;;;;;;;1999.90;999.90;;;1.90;99.90;;;;;;5053692;28;20059;-73
2022/12/06 04:45:03;;;;;;;1999.90;999.90;;;2.00;99.90;;;;;;5072479;28;20028;-73
2022/12/06 04:47:30;;;;;;;1999.90;999.90;;;2.00;99.90;;;;;;5094203;28;20043;-73
2022/12/06 04:49:55;;;;;;;1999.90;999.90;;;1.90;99.90;;;;;;5094136;28;20051;-73
2022/12/06 04:52:21;;;;;;;1999.90;999.90;;;1.90;99.90;;;;;;5094945;28;20109;-73
2022/12/06 04:54:46;;;;;;;1999.90;999.90;;;1.90;99.90;;;;;;5094445;28;20044;-73
2022/12/06 04:57:14;;;;;;;1999.90;999.90;;;1.90;99.90;;;;;;5094124;28;20020;-73
2022/12/06 04:59:41;;;;;;;1999.90;999.90;;;1.80;99.90;;;;;;5094014;28;20073;-73
2022/12/06 05:02:10;;;;;;;1999.90;999.90;;;1.90;99.90;;;;;;5094143;28;20445;-73
2022/12/06 05:04:36;;;;;;;1999.90;999.90;;;1.90;99.90;;;;;;5073439;28;20041;-73
2022/12/06 05:07:02;;;;;;;1999.90;999.90;;;1.90;99.90;;;;;;5073607;28;20476;-73
2022/12/06 05:09:27;;;;;;;1999.90;999.90;;;1.80;99.90;;;;;;5073380;28;20483;-74
2022/12/06 05:11:53;;;;;;;1999.90;999.90;;;1.90;99.90;;;;;;5073503;28;20060;-73
2022/12/06 05:14:19;;;;;;;1999.90;999.90;;;1.80;99.90;;;;;;5068476;28;20499;-73
2022/12/06 05:16:44;;;;;;;1999.90;999.90;;;1.80;99.90;;;;;;5073722;28;20032;-73
2022/12/06 05:19:12;;;;;;;1999.90;999.90;;;1.80;99.90;;;;;;5072641;28;20484;-73
2022/12/06 05:21:38;;;;;;;1999.90;999.90;;;1.80;99.90;;;;;;5070141;28;20028;-73
2022/12/06 05:24:04;;;;;;;1999.90;999.90;;;1.90;99.90;;;;;;5071825;28;20117;-73
2022/12/06 05:26:29;;;;;;;1999.90;999.90;;;1.90;99.90;;;;;;5071230;28;20027;-73
2022/12/06 05:28:57;;;;;;;1999.90;999.90;;;1.90;99.90;;;;;;5073326;28;20411;-73
2022/12/06 05:31:24;;;;;;;1999.90;999.90;;;1.90;99.90;;;;;;5073293;28;20017;-73
2022/12/06 05:33:50;;;;;;;1999.90;999.90;;;1.90;99.90;;;;;;5073108;28;20028;-73
2022/12/06 05:36:19;;;;;;;1999.90;999.90;;;1.90;99.90;;;;;;5073467;28;20479;-73
2022/12/06 05:38:46;;;;;;;1999.90;999.90;;;2.00;99.90;;;;;;5073454;28;20029;-73
2022/12/06 05:41:12;;;;;;;1999.90;999.90;;;1.90;99.90;;;;;;5072984;28;20149;-73
2022/12/06 05:43:38;;;;;;;1999.90;999.90;;;1.90;99.90;;;;;;5072950;28;20051;-73
2022/12/06 05:46:04;;;;;;;1999.90;999.90;;;1.90;99.90;;;;;;5090758;28;20117;-73
2022/12/06 05:48:30;;;;;;;1999.90;999.90;;;1.90;99.90;;;;;;5093313;28;20372;-73
2022/12/06 05:50:56;;;;;;;1999.90;999.90;;;1.90;99.90;;;;;;5093555;28;20027;-73
2022/12/06 05:53:22;;;;;;;1999.90;999.90;;;1.90;99.90;;;;;;5093396;28;20376;-73
2022/12/06 05:55:48;;;;;;;1999.90;999.90;;;1.90;99.90;;;;;;5090257;28;20042;-72
2022/12/06 05:58:14;;;;;;;1999.90;999.90;;;1.90;99.90;;;;;;5071766;28;20033;-73
2022/12/06 06:00:40;;;;;;;1999.90;999.90;;;2.00;99.90;;;;;;5072795;28;20046;-73
2022/12/06 06:03:06;;;;;;;1999.90;999.90;;;1.90;99.90;;;;;;5072133;28;20555;-72
2022/12/06 06:05:32;;;;;;;1999.90;999.90;;;1.90;99.90;;;;;;5072431;28;20079;-73
2022/12/06 06:07:57;;;;;;;1999.90;999.90;;;2.00;99.90;;;;;;5072615;28;20541;-73
2022/12/06 06:10:24;;;;;;;1999.90;999.90;;;2.00;99.90;;;;;;5072397;28;20053;-73
2022/12/06 06:12:50;;;;;;;1999.90;999.90;;;2.00;99.90;;;;;;5072309;28;20028;-75
2022/12/06 06:15:16;;;;;;;1999.90;999.90;;;1.90;99.90;;;;;;5071696;28;20032;-73
2022/12/06 06:17:42;;;;;;;1999.90;999.90;;;1.90;99.90;;;;;;5072102;28;20063;-73
2022/12/06 06:20:09;;;;;;;1999.90;999.90;;;1.80;99.90;;;;;;5072264;28;20479;-73
2022/12/06 06:22:37;;;;;;;1999.90;999.90;;;1.80;99.90;;;;;;5072332;28;20484;-73
2022/12/06 06:25:04;;;;;;;1999.90;999.90;;;1.80;99.90;;;;;;5071292;28;20029;-73
2022/12/06 06:27:32;;;;;;;1999.90;999.90;;;1.80;99.90;;;;;;5052130;28;20025;-75
2022/12/06 06:29:58;;;;;;;1999.90;999.90;;;1.80;99.90;;;;;;5052103;28;20048;-76
2022/12/06 06:32:24;;;;;;;1999.90;999.90;;;1.80;99.90;;;;;;5052227;28;20055;-75
2022/12/06 06:34:49;;;;;;;1999.90;999.90;;;1.80;99.90;;;;;;5055612;28;20506;-76
2022/12/06 06:37:15;;;;;;;1999.90;999.90;;;1.80;99.90;;;;;;5063715;28;20126;-76
2022/12/06 06:39:41;;;;;;;1999.90;999.90;;;1.80;99.90;;;;;;5073169;28;20043;-76
2022/12/06 06:42:06;;;;;;;1999.90;999.90;;;1.80;99.90;;;;;;5071574;28;20025;-76
2022/12/06 06:44:32;;;;;;;1999.90;999.90;;;1.80;99.90;;;;;;5072689;28;20031;-76
2022/12/06 06:46:58;;;;;;;1999.90;999.90;;;1.80;99.90;;;;;;5068372;28;20025;-76
2022/12/06 06:49:23;;;;;;;1999.90;999.90;;;1.90;99.90;;;;;;5067961;28;20102;-73
2022/12/06 06:51:49;;;;;;;1999.90;999.90;;;1.90;99.90;;;;;;5086247;28;20042;-73
2022/12/06 06:54:15;;;;;;;1999.90;999.90;;;1.90;99.90;;;;;;5090066;28;20036;-76
2022/12/06 06:56:41;;;;;;;1999.90;999.90;;;1.90;99.90;;;;;;5070707;28;20518;-73
2022/12/06 06:59:07;;;;;;;1999.90;999.90;;;2.00;99.90;;;;;;5071542;28;20111;-76
2022/12/06 07:01:32;;;;;;;1999.90;999.90;;;2.00;99.90;;;;;;5071341;28;20051;-75
2022/12/06 07:03:58;;;;;;;1999.90;999.90;;;2.00;99.90;;;;;;5071433;28;20427;-76
2022/12/06 07:06:24;;;;;;;1999.90;999.90;;;2.10;99.90;;;;;;5071710;28;20043;-74
2022/12/06 07:08:50;;;;;;;1999.90;999.90;;;2.10;99.90;;;;;;5070574;28;20021;-73
2022/12/06 07:11:16;;;;;;;1999.90;999.90;;;2.20;99.90;;;;;;5070085;28;20029;-73
2022/12/06 07:13:43;;;;;;;1999.90;999.90;;;2.20;99.90;;;;;;5072447;28;20032;-76
2022/12/06 07:16:14;;;;;;;1999.90;999.90;;;2.30;99.90;;;;;;5064227;28;20045;-76
2022/12/06 07:18:41;;;;;;;1999.90;999.90;;;2.30;99.90;;;;;;5070225;28;20037;-75
2022/12/06 07:21:09;;;;;;;1999.90;999.90;;;2.30;99.90;;;;;;5085083;28;20036;-73
2022/12/06 07:23:35;;;;;;;1999.90;999.90;;;2.40;99.90;;;;;;5075873;28;20067;-76
2022/12/06 07:26:02;;;;;;;1999.90;999.90;;;2.40;99.90;;;;;;5080664;28;20043;-76
2022/12/06 07:28:28;;;;;;;1999.90;999.90;;;2.50;99.90;;;;;;5067029;28;20082;-76
2022/12/06 07:30:53;;;;;;;1999.90;999.90;;;2.50;99.90;;;;;;5064946;28;20757;-76
2022/12/06 07:33:19;;;;;;;1999.90;999.90;;;2.50;99.90;;;;;;5069112;28;20103;-75
2022/12/06 07:35:57;;;;;;;1999.90;999.90;;;2.60;99.90;;;;;;5068410;28;20044;-76
2022/12/06 07:38:33;;;;;;;1999.90;999.90;;;2.70;99.90;;;;;;5066217;28;20044;-74
2022/12/06 07:46:32;;;;;;;1999.90;999.90;;;2.80;99.90;;;;;;5061810;28;20536;-74
2022/12/06 07:48:58;;;;;;;1999.90;999.90;;;2.80;99.90;;;;;;5069645;28;20051;-77
2022/12/06 07:51:24;;;;;;;1999.90;999.90;;;2.80;99.90;;;;;;5067944;28;20052;-76
2022/12/06 07:53:49;;;;;;;1999.90;999.90;;;2.90;99.90;;;;;;5069376;28;20052;-76
2022/12/06 07:56:15;;;;;;;1999.90;999.90;;;2.90;99.90;;;;;;5071918;28;20044;-77
2022/12/06 07:58:41;;;;;;;1999.90;999.90;;;3.00;99.90;;;;;;5067942;28;20097;-74
2022/12/06 08:01:06;;;;;;;1999.90;999.90;;;3.00;99.90;;;;;;5066087;28;20075;-77
2022/12/06 08:03:32;;;;;;;1999.90;999.90;;;3.00;99.90;;;;;;5072114;28;20052;-77
2022/12/06 08:05:58;;;;;;;1999.90;999.90;;;3.00;99.90;;;;;;5070532;28;20032;-74
2022/12/06 08:08:24;;;;;;;1999.90;999.90;;;3.10;99.90;;;;;;5067239;28;20021;-77
2022/12/06 08:10:50;;;;;;;1999.90;999.90;;;3.10;99.90;;;;;;5065706;28;20033;-74
2022/12/06 08:13:15;;;;;;;1999.90;999.90;;;3.20;99.90;;;;;;5072611;28;20112;-74
2022/12/06 08:15:41;;;;;;;1999.90;999.90;;;3.20;99.90;;;;;;5067704;28;20067;-77
2022/12/06 08:18:07;;;;;;;1999.90;999.90;;;3.30;99.90;;;;;;5059479;28;20024;-73
2022/12/06 08:20:43;;;;;;;1999.90;999.90;;;3.30;99.90;;;;;;5064675;28;20039;-74
2022/12/06 08:23:11;;;;;;;1999.90;999.90;;;3.40;99.90;;;;;;5069061;28;20036;-73
2022/12/06 08:25:37;;;;;;;1999.90;999.90;;;3.40;99.90;;;;;;5064881;28;20080;-77
2022/12/06 08:28:03;;;;;;;1999.90;999.90;;;3.40;99.90;;;;;;5068983;28;20448;-74
2022/12/06 08:30:29;;;;;;;1999.90;999.90;;;3.50;99.90;;;;;;5071372;28;20142;-73
2022/12/06 08:32:55;;;;;;;1999.90;999.90;;;3.60;99.90;;;;;;5081104;28;20028;-77
2022/12/06 08:35:23;;;;;;;1999.90;999.90;;;3.60;99.90;;;;;;5068489;28;20044;-76
2022/12/06 08:37:48;;;;;;;1999.90;999.90;;;3.70;99.90;;;;;;5068913;28;20110;-76
2022/12/06 08:40:14;;;;;;;1999.90;999.90;;;3.70;99.90;;;;;;5069518;28;20059;-78
2022/12/06 08:42:42;;;;;;;1999.90;999.90;;;3.80;99.90;;;;;;5071717;28;20082;-76
2022/12/06 08:45:08;;;;;;;1999.90;999.90;;;3.80;99.90;;;;;;5067182;28;20036;-75
2022/12/06 08:47:34;;;;;;;1999.90;999.90;;;3.90;99.90;;;;;;5070893;28;20391;-77
2022/12/06 08:49:59;;;;;;;1999.90;999.90;;;3.90;99.90;;;;;;5071641;28;20031;-78
2022/12/06 08:52:25;;;;;;;1999.90;999.90;;;4.00;99.90;;;;;;5067354;28;20033;-77
2022/12/06 08:54:51;;;;;;;1999.90;999.90;;;4.10;99.90;;;;;;5065685;28;20058;-76
2022/12/06 08:57:31;;;;;;;1999.90;999.90;;;4.10;99.90;;;;;;5062612;28;20033;-77
2022/12/06 08:59:56;;;;;;;1999.90;999.90;;;4.10;99.90;;;;;;5102452;28;20119;-75
2022/12/06 09:02:22;;;;;;;1999.90;999.90;;;4.20;99.90;;;;;;5069365;28;20500;-77
2022/12/06 09:04:50;;;;;;;1999.90;999.90;;;4.30;99.90;;;;;;5071382;28;20044;-74
2022/12/06 09:07:16;;;;;;;1999.90;999.90;;;4.30;99.90;;;;;;5067188;28;20028;-77
2022/12/06 09:09:44;;;;;;;1999.90;999.90;;;4.40;99.90;;;;;;5069471;28;20119;-77
2022/12/06 09:12:12;;;;;;;1999.90;999.90;;;4.50;99.90;;;;;;5059762;28;20016;-77
2022/12/06 09:14:38;;;;;;;1999.90;999.90;;;4.50;99.90;;;;;;5069478;28;20115;-74
2022/12/06 09:17:04;;;;;;;1999.90;999.90;;;4.50;99.90;;;;;;5065182;28;20158;-74
2022/12/06 09:19:30;;;;;;;1999.90;999.90;;;4.50;99.90;;;;;;5071139;28;20028;-77
2022/12/06 09:21:56;;;;;;;1999.90;999.90;;;4.60;99.90;;;;;;5068954;28;20036;-78
2022/12/06 09:24:21;;;;;;;1999.90;999.90;;;4.80;99.90;;;;;;5069577;28;20031;-78
2022/12/06 09:26:48;;;;;;;1999.90;999.90;;;4.90;99.90;;;;;;5062346;28;20017;-74
2022/12/06 09:29:24;;;;;;;1999.90;999.90;;;4.90;99.90;;;;;;5066254;28;20418;-74
2022/12/06 09:31:50;;;;;;;1999.90;999.90;;;4.90;99.90;;;;;;5061118;28;20403;-74
2022/12/06 09:34:16;;;;;;;1999.90;999.90;;;4.90;99.90;;;;;;5063188;28;20036;-76
2022/12/06 09:37:03;;;;;;;1999.90;999.90;;;4.90;99.90;;;;;;5065673;28;20109;-78
2022/12/06 09:39:42;;;;;;;1999.90;999.90;;;5.00;99.90;;;;;;5066772;28;20032;-75
2022/12/06 09:42:29;;;;;;;1999.90;999.90;;;5.10;99.90;;;;;;5071504;28;20032;-74
2022/12/06 09:45:16;;;;;;;1999.90;999.90;;;5.10;99.90;;;;;;5069781;28;20032;-77
2022/12/06 09:47:53;;;;;;;1999.90;999.90;;;5.10;99.90;;;;;;5062536;28;20106;-75
2022/12/06 09:50:40;;;;;;;1999.90;999.90;;;5.10;99.90;;;;;;5068692;28;20783;-77
2022/12/06 09:53:29;;;;;;;1999.90;999.90;;;5.10;99.90;;;;;;5061985;28;20036;-76
2022/12/06 09:56:13;;;;;;;1999.90;999.90;;;5.20;99.90;;;;;;5067105;28;20037;-75
2022/12/06 09:58:51;;;;;;;1999.90;999.90;;;5.40;99.90;;;;;;5069045;28;20031;-76
2022/12/06 10:01:48;;;;;;;1999.90;999.90;;;5.60;99.90;;;;;;5070985;28;20028;-76
2022/12/06 10:04:48;;;;;;;1999.90;999.90;;;5.60;99.90;;;;;;5099126;27;20522;-78
2022/12/06 10:07:39;;;;;;;1999.90;999.90;;;5.70;99.90;;;;;;5063187;28;20025;-76
2022/12/06 10:10:45;;;;;;;1999.90;999.90;;;5.60;99.90;;;;;;5067951;28;20025;-76
2022/12/06 10:13:35;;;;;;;1999.90;999.90;;;5.70;99.90;;;;;;5060422;28;20036;-77
2022/12/06 10:16:22;;;;;;;1999.90;999.90;;;5.70;99.90;;;;;;5064299;28;20043;-77
2022/12/06 10:19:08;;;;;;;1999.90;999.90;;;5.50;99.90;;;;;;5066402;28;20449;-75
2022/12/06 10:21:48;;;;;;;1999.90;999.90;;;5.30;99.90;;;;;;5068323;28;20472;-75
2022/12/06 10:24:13;;;;;;;1999.90;999.90;;;5.20;99.90;;;;;;5066296;28;20439;-75
2022/12/06 10:26:48;;;;;;;1999.90;999.90;;;5.10;99.90;;;;;;5064683;28;20095;-74
2022/12/06 10:29:30;;;;;;;1999.90;999.90;;;5.10;99.90;;;;;;5065737;28;20498;-76
2022/12/06 10:31:57;;;;;;;1999.90;999.90;;;5.10;99.90;;;;;;5068473;28;20055;-75
2022/12/06 10:34:28;;;;;;;1999.90;999.90;;;5.10;99.90;;;;;;5079255;28;20032;-76
2022/12/06 10:37:22;;;;;;;1999.90;999.90;;;5.10;99.90;;;;;;5065630;28;20067;-78
2022/12/06 10:39:54;;;;;;;1999.90;999.90;;;5.20;99.90;;;;;;5069671;28;20495;-81
2022/12/06 10:42:19;;;;;;;1999.90;999.90;;;5.40;99.90;;;;;;5088760;28;20070;-79
2022/12/06 10:44:52;;;;;;;1999.90;999.90;;;5.60;99.90;;;;;;5068235;28;20109;-77
2022/12/06 10:47:33;;;;;;;1999.90;999.90;;;5.80;99.90;;;;;;5060347;28;20029;-76
2022/12/06 10:50:07;;;;;;;1999.90;999.90;;;5.70;99.90;;;;;;5062727;28;20039;-78
2022/12/06 10:52:41;;;;;;;1999.90;999.90;;;5.70;99.90;;;;;;5059221;28;20060;-76
2022/12/06 10:55:10;;;;;;;1999.90;999.90;;;5.60;99.90;;;;;;5062307;28;20029;-78
2022/12/06 10:57:42;;;;;;;1999.90;999.90;;;5.60;99.90;;;;;;5061056;28;20513;-80
2022/12/06 11:00:20;;;;;;;1999.90;999.90;;;6.00;99.90;;;;;;5071088;28;20032;-78
2022/12/06 11:03:00;;;;;;;1999.90;999.90;;;6.40;99.90;;;;;;5070179;28;20071;-77
2022/12/06 11:05:43;;;;;;;1999.90;999.90;;;6.50;99.90;;;;;;5068895;28;20036;-80
2022/12/06 11:08:35;;;;;;;1999.90;999.90;;;6.30;99.90;;;;;;5063994;28;20078;-79
2022/12/06 11:11:09;;;;;;;1999.90;999.90;;;6.30;99.90;;;;;;5078626;28;20086;-77
2022/12/06 11:13:48;;;;;;;1999.90;999.90;;;6.10;99.90;;;;;;5064129;28;20789;-79
2022/12/06 11:16:23;;;;;;;1999.90;999.90;;;6.00;99.90;;;;;;5064328;28;20047;-77
2022/12/06 11:18:50;;;;;;;1999.90;999.90;;;6.00;99.90;;;;;;5071506;28;20028;-77
2022/12/06 11:21:43;;;;;;;1999.90;999.90;;;6.00;99.90;;;;;;5068964;28;20029;-77
2022/12/06 11:24:16;;;;;;;1999.90;999.90;;;5.90;99.90;;;;;;5071288;28;20039;-79
2022/12/06 11:26:51;;;;;;;1999.90;999.90;;;5.90;99.90;;;;;;5072224;28;20156;-78
2022/12/06 11:29:17;;;;;;;1999.90;999.90;;;5.90;99.90;;;;;;5069998;28;20477;-80
2022/12/06 11:31:50;;;;;;;1999.90;999.90;;;6.00;99.90;;;;;;5063914;28;20025;-78
2022/12/06 11:34:22;;;;;;;;;;;6.00;99.90;;;;;;5072104;28;20534;-77
2022/12/06 11:36:50;;;;;;;1999.90;999.90;;;6.20;99.90;;;;;;5065700;28;20391;-78
2022/12/06 11:39:16;;;;;;;1999.90;999.90;;;6.40;99.90;;;;;;5059593;28;20025;-79
2022/12/06 11:41:45;;;;;;;1999.90;999.90;;;6.70;99.90;;;;;;5069799;28;20035;-78
2022/12/06 11:44:17;;;;;;;1999.90;999.90;;;6.90;99.90;;;;;;5081600;28;20103;-80
2022/12/06 11:46:44;;;;;;;1999.90;999.90;;;7.00;99.90;;;;;;5072430;28;20435;-78
2022/12/06 11:49:27;;;;;;;1999.90;999.90;;;7.10;99.90;;;;;;5066201;28;20028;-78
2022/12/06 11:51:54;;;;;;;1999.90;999.90;;;7.70;99.90;;;;;;5062804;28;20090;-76
2022/12/06 11:54:32;;;;;;;1999.90;999.90;;;8.00;99.90;;;;;;5064676;28;20024;-79
2022/12/06 11:57:02;;;;;;;1999.90;999.90;;;8.10;99.90;;;;;;5067344;28;20032;-76
2022/12/06 11:59:30;;;;;;;1999.90;999.90;;;8.10;99.90;;;;;;5070536;28;20044;-77
2022/12/06 12:02:01;;;;;;;1999.90;999.90;;;8.20;99.90;;;;;;5068377;28;20039;-78
2022/12/06 12:04:37;;;;;;;1999.90;999.90;;;8.20;99.90;;;;;;5068134;28;20032;-77
2022/12/06 12:07:11;;;;;;;1999.90;999.90;;;8.40;99.90;;;;;;5071054;28;20032;-76
2022/12/06 12:09:53;;;;;;;1999.90;999.90;;;8.50;99.90;;;;;;5066280;28;20020;-77
2022/12/06 12:13:42;;;;;;;1999.90;999.90;;;8.70;99.90;;;;;;5070215;28;20028;-76
2022/12/06 12:15:17;;;;;;;1999.90;999.90;;;9.10;99.90;;;;;;5070445;28;20029;-78
2022/12/06 12:17:46;;;;;;;1999.90;999.90;;;9.20;99.90;;;;;;5071359;28;20111;-76
2022/12/06 12:20:24;;;;;;;1999.90;999.90;;;9.40;99.90;;;;;;5069834;28;20031;-78
2022/12/06 12:22:59;;;;;;;1999.90;999.90;;;9.20;99.90;;;;;;5066942;28;20438;-77
2022/12/06 12:25:27;;;;;;;1999.90;999.90;;;8.60;99.90;;;;;;5065612;28;20472;-79
2022/12/06 12:27:57;;;;;;;1999.90;999.90;;;8.30;99.90;;;;;;5069546;28;20035;-77
2022/12/06 12:30:38;;;;;;;1999.90;999.90;;;8.20;99.90;;;;;;5068286;28;20028;-77
2022/12/06 12:33:06;;;;;;;1999.90;999.90;;;8.30;99.90;;;;;;5065819;28;20026;-77
2022/12/06 12:35:47;;;;;;;1999.90;999.90;;;8.20;99.90;;;;;;5061889;28;20025;-79
2022/12/06 12:38:23;;;;;;;1999.90;999.90;;;8.20;99.90;;;;;;5069677;28;20199;-79
2022/12/06 12:41:20;;;;;;;1999.90;999.90;;;8.60;99.90;;;;;;5065227;28;20025;-76
2022/12/06 12:43:55;;;;;;;1999.90;999.90;;;8.50;99.90;;;;;;5067716;28;20530;-77
2022/12/06 12:46:21;;;;;;;1999.90;999.90;;;8.70;99.90;;;;;;5068807;28;20020;-76